createdAt,value
2018-07-09T00:00:22.587Z,100186.00
2018-07-09T00:02:27.686Z,100183.00
2018-07-09T00:04:32.216Z,100186.00
2018-07-09T00:06:36.778Z,100186.00
2018-07-09T00:08:41.295Z,100189.00
2018-07-09T00:11:07.194Z,100183.00
2018-07-09T00:13:11.826Z,100180.00
2018-07-09T00:15:16.307Z,100182.00
2018-07-09T00:17:21.627Z,100182.00
2018-07-09T00:19:26.146Z,100185.00
2018-07-09T00:21:30.638Z,100174.00
2018-07-09T00:23:35.162Z,100180.00
2018-07-09T00:25:39.619Z,100181.00
2018-07-09T00:27:44.172Z,100177.00
2018-07-09T00:29:48.718Z,100174.00
2018-07-09T00:31:53.213Z,100179.00
2018-07-09T00:33:57.702Z,100177.00
2018-07-09T00:36:08.100Z,100176.00
2018-07-09T00:38:24.707Z,100176.00
2018-07-09T00:40:33.341Z,100180.00
2018-07-09T00:42:42.830Z,100189.00
2018-07-09T00:44:48.051Z,100185.00
2018-07-09T00:46:52.537Z,100193.00
2018-07-09T00:48:57.088Z,100184.00
2018-07-09T00:51:01.612Z,100195.00
2018-07-09T00:53:06.178Z,100199.00
2018-07-09T00:55:10.741Z,100193.00
2018-07-09T00:57:15.326Z,100198.00
2018-07-09T00:59:19.887Z,100198.00
2018-07-09T01:01:27.366Z,100188.00
2018-07-09T01:03:32.939Z,100191.00
2018-07-09T01:05:41.862Z,100186.00
2018-07-09T01:07:49.289Z,100195.00
2018-07-09T01:09:55.902Z,100181.00
2018-07-09T01:12:15.146Z,100186.00
2018-07-09T01:14:22.446Z,100188.00
2018-07-09T01:16:28.723Z,100182.00
2018-07-09T01:18:36.495Z,100189.00
2018-07-09T01:20:44.023Z,100180.00
2018-07-09T01:22:51.863Z,100180.00
2018-07-09T01:24:58.483Z,100184.00
2018-07-09T01:27:06.270Z,100185.00
2018-07-09T01:29:13.690Z,100184.00
2018-07-09T01:31:22.166Z,100179.00
2018-07-09T01:33:28.885Z,100189.00
2018-07-09T01:35:34.551Z,100177.00
2018-07-09T01:37:41.769Z,100176.00
2018-07-09T01:39:49.514Z,100168.00
2018-07-09T01:41:58.464Z,100171.00
2018-07-09T01:44:06.092Z,100173.00
2018-07-09T01:46:13.362Z,100172.00
2018-07-09T01:48:21.567Z,100166.00
2018-07-09T01:50:27.176Z,100165.00
2018-07-09T01:52:32.990Z,100166.00
2018-07-09T01:54:37.464Z,100166.00
2018-07-09T01:56:46.601Z,100164.00
2018-07-09T01:58:53.705Z,100171.00
2018-07-09T02:00:58.177Z,100164.00
2018-07-09T02:03:02.738Z,100175.00
2018-07-09T02:05:07.272Z,100179.00
2018-07-09T02:07:14.379Z,100175.00
2018-07-09T02:09:22.102Z,100176.00
2018-07-09T02:11:29.590Z,100166.00
2018-07-09T02:13:38.057Z,100162.00
2018-07-09T02:15:45.523Z,100165.00
2018-07-09T02:17:52.791Z,100157.00
2018-07-09T02:19:59.077Z,100165.00
2018-07-09T02:22:06.453Z,100160.00
2018-07-09T02:24:13.545Z,100161.00
2018-07-09T02:26:18.114Z,100155.00
2018-07-09T02:28:22.606Z,100158.00
2018-07-09T02:30:27.199Z,100147.00
2018-07-09T02:32:31.668Z,100152.00
2018-07-09T02:34:36.273Z,100147.00
2018-07-09T02:36:40.770Z,100143.00
2018-07-09T02:38:45.347Z,100138.00
2018-07-09T02:40:49.872Z,100146.00
2018-07-09T02:42:54.346Z,100142.00
2018-07-09T02:44:59.567Z,100140.00
2018-07-09T02:47:04.057Z,100130.00
2018-07-09T02:49:09.419Z,100143.00
2018-07-09T02:51:13.855Z,100149.00
2018-07-09T02:53:18.391Z,100154.00
2018-07-09T02:55:23.589Z,100147.00
2018-07-09T02:57:29.231Z,100150.00
2018-07-09T02:59:33.754Z,100157.00
2018-07-09T03:01:38.371Z,100162.00
2018-07-09T03:03:42.972Z,100163.00
2018-07-09T03:05:47.575Z,100160.00
2018-07-09T03:07:52.260Z,100166.00
2018-07-09T03:09:56.769Z,100164.00
2018-07-09T03:12:02.123Z,100169.00
2018-07-09T03:14:07.270Z,100174.00
2018-07-09T03:16:11.727Z,100164.00
2018-07-09T03:18:16.187Z,100167.00
2018-07-09T03:20:20.693Z,100171.00
2018-07-09T03:22:25.182Z,100171.00
2018-07-09T03:24:29.655Z,100160.00
2018-07-09T03:26:34.182Z,100152.00
2018-07-09T03:28:38.652Z,100161.00
2018-07-09T03:30:43.828Z,100163.00
2018-07-09T03:32:51.643Z,100159.00
2018-07-09T03:34:58.682Z,100160.00
2018-07-09T03:37:03.294Z,100151.00
2018-07-09T03:39:09.418Z,100171.00
2018-07-09T03:41:15.155Z,100170.00
2018-07-09T03:43:19.652Z,100177.00
2018-07-09T03:45:24.158Z,100172.00
2018-07-09T03:47:29.844Z,100180.00
2018-07-09T03:49:34.346Z,100174.00
2018-07-09T03:51:39.172Z,100162.00
2018-07-09T03:53:43.744Z,100168.00
2018-07-09T03:55:48.272Z,100179.00
2018-07-09T03:57:52.867Z,100171.00
2018-07-09T03:59:57.432Z,100175.00
2018-07-09T04:02:04.958Z,100172.00
2018-07-09T04:04:10.743Z,100171.00
2018-07-09T04:06:18.215Z,100178.00
2018-07-09T04:08:25.091Z,100177.00
2018-07-09T04:10:32.193Z,100180.00
2018-07-09T04:12:37.736Z,100185.00
2018-07-09T04:14:44.212Z,100182.00
2018-07-09T04:16:52.951Z,100186.00
2018-07-09T04:18:59.162Z,100184.00
2018-07-09T04:21:07.087Z,100174.00
2018-07-09T04:23:11.706Z,100196.00
2018-07-09T04:25:16.251Z,100187.00
2018-07-09T04:27:20.774Z,100188.00
2018-07-09T04:29:25.322Z,100196.00
2018-07-09T04:31:29.789Z,100193.00
2018-07-09T04:33:34.237Z,100195.00
2018-07-09T04:35:38.756Z,100205.00
2018-07-09T04:37:43.237Z,100202.00
2018-07-09T04:39:47.691Z,100199.00
2018-07-09T04:41:52.206Z,100203.00
2018-07-09T04:43:56.711Z,100195.00
2018-07-09T04:46:01.228Z,100209.00
2018-07-09T04:48:06.103Z,100201.00
2018-07-09T04:50:10.680Z,100205.00
2018-07-09T04:54:28.166Z,100204.00
2018-07-09T04:56:32.305Z,100211.00
2018-07-09T04:58:36.815Z,100216.00
2018-07-09T05:00:41.330Z,100207.00
2018-07-09T05:02:45.822Z,100214.00
2018-07-09T05:04:50.875Z,100214.00
2018-07-09T05:06:58.447Z,100207.00
2018-07-09T05:09:03.096Z,100207.00
2018-07-09T05:11:07.982Z,100200.00
2018-07-09T05:13:12.492Z,100197.00
2018-07-09T05:15:17.058Z,100199.00
2018-07-09T05:17:21.613Z,100204.00
2018-07-09T05:19:26.095Z,100209.00
2018-07-09T05:21:30.667Z,100205.00
2018-07-09T05:23:35.160Z,100201.00
2018-07-09T05:25:39.716Z,100197.00
2018-07-09T05:27:44.539Z,100207.00
2018-07-09T05:29:49.047Z,100206.00
2018-07-09T05:31:54.413Z,100209.00
2018-07-09T05:33:58.953Z,100202.00
2018-07-09T05:36:03.570Z,100217.00
2018-07-09T05:38:08.089Z,100209.00
2018-07-09T05:40:12.666Z,100205.00
2018-07-09T05:42:17.244Z,100207.00
2018-07-09T05:44:21.824Z,100217.00
2018-07-09T05:46:26.322Z,100210.00
2018-07-09T05:48:30.866Z,100197.00
2018-07-09T05:50:35.343Z,100195.00
2018-07-09T05:52:39.557Z,100197.00
2018-07-09T05:54:44.192Z,100192.00
2018-07-09T05:56:48.722Z,100192.00
2018-07-09T05:58:53.543Z,100193.00
2018-07-09T06:00:58.134Z,100182.00
2018-07-09T06:03:02.626Z,100174.00
2018-07-09T06:05:07.950Z,100187.00
2018-07-09T06:07:12.435Z,100181.00
2018-07-09T06:09:17.293Z,100174.00
2018-07-09T06:11:21.912Z,100183.00
2018-07-09T06:13:26.418Z,100174.00
2018-07-09T06:15:30.912Z,100176.00
2018-07-09T06:17:35.443Z,100164.00
2018-07-09T06:19:40.127Z,100169.00
2018-07-09T06:21:44.671Z,100178.00
2018-07-09T06:23:49.618Z,100178.00
2018-07-09T06:25:54.114Z,100175.00
2018-07-09T06:27:58.702Z,100171.00
2018-07-09T06:30:03.198Z,100161.00
2018-07-09T06:32:08.055Z,100163.00
2018-07-09T06:34:12.684Z,100165.00
2018-07-09T06:36:17.174Z,100170.00
2018-07-09T06:38:21.670Z,100164.00
2018-07-09T06:40:27.634Z,100172.00
2018-07-09T06:42:32.535Z,100169.00
2018-07-09T06:44:37.181Z,100168.00
2018-07-09T06:46:41.855Z,100165.00
2018-07-09T06:48:46.303Z,100167.00
2018-07-09T06:50:50.802Z,100174.00
2018-07-09T06:52:55.334Z,100179.00
2018-07-09T06:54:59.875Z,100180.00
2018-07-09T06:57:04.440Z,100180.00
2018-07-09T06:59:09.103Z,100180.00
2018-07-09T07:01:13.685Z,100186.00
2018-07-09T07:03:18.179Z,100176.00
2018-07-09T07:05:22.731Z,100189.00
2018-07-09T07:07:27.242Z,100183.00
2018-07-09T07:09:32.580Z,100184.00
2018-07-09T07:11:37.375Z,100172.00
2018-07-09T07:13:41.929Z,100171.00
2018-07-09T07:15:46.375Z,100179.00
2018-07-09T07:17:51.702Z,100182.00
2018-07-09T07:19:56.395Z,100194.00
2018-07-09T07:22:00.865Z,100195.00
2018-07-09T07:24:05.543Z,100196.00
2018-07-09T07:26:10.031Z,100202.00
2018-07-09T07:28:14.624Z,100198.00
2018-07-09T07:30:19.139Z,100195.00
2018-07-09T07:32:23.642Z,100198.00
2018-07-09T07:34:28.241Z,100190.00
2018-07-09T07:36:32.488Z,100194.00
2018-07-09T07:38:37.032Z,100193.00
2018-07-09T07:40:41.667Z,100195.00
2018-07-09T07:42:46.277Z,100199.00
2018-07-09T07:44:50.815Z,100188.00
2018-07-09T07:46:55.286Z,100191.00
2018-07-09T07:49:00.027Z,100186.00
2018-07-09T07:51:04.531Z,100182.00
2018-07-09T07:53:09.186Z,100190.00
2018-07-09T07:55:13.739Z,100190.00
2018-07-09T07:57:18.509Z,100185.00
2018-07-09T07:59:22.979Z,100178.00
2018-07-09T08:01:27.485Z,100183.00
2018-07-09T08:03:32.982Z,100189.00
2018-07-09T08:05:37.547Z,100189.00
2018-07-09T08:07:42.080Z,100175.00
2018-07-09T08:09:46.581Z,100174.00
2018-07-09T08:11:51.439Z,100177.00
2018-07-09T08:13:56.339Z,100175.00
2018-07-09T08:16:00.832Z,100174.00
2018-07-09T08:18:05.386Z,100173.00
2018-07-09T08:20:10.384Z,100176.00
2018-07-09T08:22:14.876Z,100172.00
2018-07-09T08:24:19.374Z,100168.00
2018-07-09T08:26:23.871Z,100164.00
2018-07-09T08:28:28.085Z,100165.00
2018-07-09T08:30:33.998Z,100169.00
2018-07-09T08:32:38.569Z,100175.00
2018-07-09T08:34:43.033Z,100168.00
2018-07-09T08:36:48.207Z,100183.00
2018-07-09T08:38:53.264Z,100164.00
2018-07-09T08:40:57.735Z,100159.00
2018-07-09T08:43:02.264Z,100162.00
2018-07-09T08:45:06.855Z,100157.00
2018-07-09T08:47:11.449Z,100159.00
2018-07-09T08:49:15.968Z,100160.00
2018-07-09T08:51:20.466Z,100164.00
2018-07-09T08:53:25.024Z,100157.00
2018-07-09T08:55:29.540Z,100157.00
2018-07-09T08:57:33.989Z,100162.00
2018-07-09T08:59:38.533Z,100165.00
2018-07-09T09:01:43.037Z,100164.00
2018-07-09T09:03:47.623Z,100165.00
2018-07-09T09:05:53.823Z,100174.00
2018-07-09T09:07:58.922Z,100167.00
2018-07-09T09:10:03.643Z,100163.00
2018-07-09T09:12:08.894Z,100165.00
2018-07-09T09:14:13.541Z,100162.00
2018-07-09T09:16:18.357Z,100159.00
2018-07-09T09:18:22.868Z,100161.00
2018-07-09T09:20:27.430Z,100158.00
2018-07-09T09:22:32.774Z,100164.00
2018-07-09T09:24:41.136Z,100162.00
2018-07-09T09:26:45.743Z,100155.00
2018-07-09T09:28:50.232Z,100153.00
2018-07-09T09:30:54.698Z,100157.00
2018-07-09T09:32:59.187Z,100158.00
2018-07-09T09:35:04.247Z,100156.00
2018-07-09T09:37:09.059Z,100149.00
2018-07-09T09:39:15.960Z,100151.00
2018-07-09T09:41:23.032Z,100147.00
2018-07-09T09:43:32.109Z,100139.00
2018-07-09T09:45:38.541Z,100141.00
2018-07-09T09:47:43.088Z,100143.00
2018-07-09T09:49:47.599Z,100151.00
2018-07-09T09:51:52.158Z,100147.00
2018-07-09T09:53:56.748Z,100128.00
2018-07-09T09:56:01.213Z,100131.00
2018-07-09T09:58:06.982Z,100129.00
2018-07-09T10:00:11.539Z,100127.00
2018-07-09T10:02:16.024Z,100131.00
2018-07-09T10:04:20.598Z,100137.00
2018-07-09T10:06:25.151Z,100128.00
2018-07-09T10:08:29.626Z,100131.00
2018-07-09T10:10:34.202Z,100121.00
2018-07-09T10:12:38.689Z,100130.00
2018-07-09T10:14:43.182Z,100120.00
2018-07-09T10:16:47.762Z,100126.00
2018-07-09T10:18:53.575Z,100122.00
2018-07-09T10:20:58.014Z,100124.00
2018-07-09T10:23:02.929Z,100121.00
2018-07-09T10:25:07.663Z,100124.00
2018-07-09T10:27:12.130Z,100118.00
2018-07-09T10:29:16.623Z,100118.00
2018-07-09T10:31:21.069Z,100114.00
2018-07-09T10:33:25.594Z,100123.00
2018-07-09T10:35:30.067Z,100126.00
2018-07-09T10:37:34.550Z,100119.00
2018-07-09T10:39:39.086Z,100115.00
2018-07-09T10:41:43.593Z,100127.00
2018-07-09T10:43:48.066Z,100121.00
2018-07-09T10:45:52.570Z,100117.00
2018-07-09T10:47:57.767Z,100117.00
2018-07-09T10:50:02.276Z,100110.00
2018-07-09T10:52:07.068Z,100107.00
2018-07-09T10:54:11.891Z,100104.00
2018-07-09T10:56:16.480Z,100109.00
2018-07-09T10:58:20.958Z,100102.00
2018-07-09T11:00:25.431Z,100104.00
2018-07-09T11:02:29.960Z,100103.00
2018-07-09T11:04:34.516Z,100115.00
2018-07-09T11:06:39.111Z,100104.00
2018-07-09T11:08:43.559Z,100101.00
2018-07-09T11:10:48.067Z,100100.00
2018-07-09T11:12:52.651Z,100103.00
2018-07-09T11:14:57.918Z,100107.00
2018-07-09T11:17:02.516Z,100110.00
2018-07-09T11:19:07.249Z,100111.00
2018-07-09T11:21:11.825Z,100099.00
2018-07-09T11:23:16.427Z,100100.00
2018-07-09T11:25:20.956Z,100093.00
2018-07-09T11:27:25.390Z,100093.00
2018-07-09T11:29:30.302Z,100099.00
2018-07-09T11:31:34.786Z,100100.00
2018-07-09T11:33:39.387Z,100102.00
2018-07-09T11:35:45.622Z,100102.00
2018-07-09T11:37:50.244Z,100104.00
2018-07-09T11:39:54.800Z,100099.00
2018-07-09T11:41:59.320Z,100100.00
2018-07-09T11:44:03.959Z,100104.00
2018-07-09T11:46:08.587Z,100098.00
2018-07-09T11:48:13.082Z,100100.00
2018-07-09T11:50:18.868Z,100107.00
2018-07-09T11:52:23.426Z,100098.00
2018-07-09T11:54:28.118Z,100100.00
2018-07-09T11:56:32.615Z,100101.00
2018-07-09T11:58:38.248Z,100106.00
2018-07-09T12:00:42.902Z,100092.00
2018-07-09T12:02:47.839Z,100099.00
2018-07-09T12:04:52.685Z,100100.00
2018-07-09T12:06:58.499Z,100093.00
2018-07-09T12:09:04.597Z,100094.00
2018-07-09T12:11:09.658Z,100109.00
2018-07-09T12:13:14.071Z,100100.00
2018-07-09T12:15:18.721Z,100100.00
2018-07-09T12:17:23.005Z,100102.00
2018-07-09T12:19:28.172Z,100099.00
2018-07-09T12:21:32.692Z,100101.00
2018-07-09T12:23:38.080Z,100094.00
2018-07-09T12:25:42.586Z,100096.00
2018-07-09T12:27:47.137Z,100093.00
2018-07-09T12:29:52.164Z,100097.00
2018-07-09T12:31:57.205Z,100089.00
2018-07-09T12:34:02.301Z,100083.00
2018-07-09T12:36:09.084Z,100075.00
2018-07-09T12:38:13.704Z,100090.00
2018-07-09T12:40:18.650Z,100075.00
2018-07-09T12:42:24.485Z,100077.00
2018-07-09T12:44:29.141Z,100082.00
2018-07-09T12:46:33.646Z,100084.00
2018-07-09T12:48:38.892Z,100084.00
2018-07-09T12:50:43.490Z,100084.00
2018-07-09T12:52:48.060Z,100092.00
2018-07-09T12:54:52.662Z,100083.00
2018-07-09T12:56:57.186Z,100079.00
2018-07-09T12:59:02.035Z,100081.00
2018-07-09T13:01:07.205Z,100078.00
2018-07-09T13:03:14.013Z,100080.00
2018-07-09T13:05:19.199Z,100067.00
2018-07-09T13:07:24.314Z,100069.00
2018-07-09T13:09:28.832Z,100066.00
2018-07-09T13:11:33.659Z,100073.00
2018-07-09T13:13:38.058Z,100075.00
2018-07-09T13:15:42.622Z,100063.00
2018-07-09T13:17:47.709Z,100070.00
2018-07-09T13:19:52.201Z,100069.00
2018-07-09T13:21:57.699Z,100066.00
2018-07-09T13:24:03.309Z,100074.00
2018-07-09T13:26:08.701Z,100069.00
2018-07-09T13:28:13.572Z,100066.00
2018-07-09T13:30:18.458Z,100069.00
2018-07-09T13:32:23.579Z,100066.00
2018-07-09T13:34:29.551Z,100060.00
2018-07-09T13:36:34.269Z,100061.00
2018-07-09T13:38:39.613Z,100057.00
2018-07-09T13:40:44.431Z,100058.00
2018-07-09T13:42:49.126Z,100064.00
2018-07-09T13:44:53.707Z,100069.00
2018-07-09T13:46:58.459Z,100061.00
2018-07-09T13:49:03.028Z,100057.00
2018-07-09T13:51:07.912Z,100056.00
2018-07-09T13:53:13.366Z,100056.00
2018-07-09T13:55:18.129Z,100046.00
2018-07-09T13:57:23.406Z,100049.00
2018-07-09T13:59:28.055Z,100052.00
2018-07-09T14:01:32.630Z,100053.00
2018-07-09T14:03:37.776Z,100053.00
2018-07-09T14:05:42.784Z,100041.00
2018-07-09T14:07:47.423Z,100042.00
2018-07-09T14:09:51.858Z,100032.00
2018-07-09T14:11:56.546Z,100027.00
2018-07-09T14:14:00.978Z,100034.00
2018-07-09T14:16:05.647Z,100021.00
2018-07-09T14:18:09.832Z,100028.00
2018-07-09T14:20:27.889Z,100022.00
2018-07-09T14:22:36.140Z,100022.00
2018-07-09T14:24:40.847Z,100015.00
2018-07-09T14:26:45.774Z,100017.00
2018-07-09T14:28:50.526Z,100013.00
2018-07-09T14:30:54.962Z,100012.00
2018-07-09T14:33:01.282Z,100002.00
2018-07-09T14:35:06.463Z,99995.00
2018-07-09T14:37:13.602Z,99993.00
2018-07-09T14:39:19.086Z,99983.00
2018-07-09T14:41:23.533Z,99983.00
2018-07-09T14:43:28.024Z,99982.00
2018-07-09T14:45:32.474Z,99982.00
2018-07-09T14:47:37.509Z,99985.00
2018-07-09T14:49:41.964Z,99984.00
2018-07-09T14:51:46.474Z,99973.00
2018-07-09T14:53:50.876Z,99978.00
2018-07-09T14:55:55.346Z,99972.00
2018-07-09T14:57:59.847Z,99972.00
2018-07-09T15:00:04.631Z,99975.00
2018-07-09T15:02:09.490Z,99968.00
2018-07-09T15:04:14.816Z,99968.00
2018-07-09T15:06:19.442Z,99965.00
2018-07-09T15:08:23.967Z,99966.00
2018-07-09T15:10:28.786Z,99964.00
2018-07-09T15:12:33.377Z,99965.00
2018-07-09T15:14:37.900Z,99958.00
2018-07-09T15:16:42.503Z,99949.00
2018-07-09T15:18:46.999Z,99958.00
2018-07-09T15:20:51.465Z,99962.00
2018-07-09T15:22:55.988Z,99960.00
2018-07-09T15:25:00.546Z,99966.00
2018-07-09T15:27:05.175Z,99967.00
2018-07-09T15:29:09.716Z,99965.00
2018-07-09T15:31:14.184Z,99966.00
2018-07-09T15:33:19.347Z,99968.00
2018-07-09T15:35:23.951Z,99975.00
2018-07-09T15:37:29.744Z,99965.00
2018-07-09T15:39:41.027Z,99962.00
2018-07-09T15:41:49.302Z,99963.00
2018-07-09T15:44:03.747Z,99966.00
2018-07-09T15:46:10.799Z,99964.00
2018-07-09T15:48:20.072Z,99953.00
2018-07-09T15:50:31.790Z,99954.00
2018-07-09T15:52:41.541Z,99956.00
2018-07-09T15:54:51.183Z,99955.00
2018-07-09T15:57:01.577Z,99957.00
2018-07-09T15:59:08.785Z,99952.00
2018-07-09T16:01:18.926Z,99950.00
2018-07-09T16:03:28.794Z,99942.00
2018-07-09T16:05:35.336Z,99941.00
2018-07-09T16:07:43.551Z,99939.00
2018-07-09T16:09:54.411Z,99936.00
2018-07-09T16:12:05.539Z,99934.00
2018-07-09T16:14:13.614Z,99937.00
2018-07-09T16:16:22.529Z,99930.00
2018-07-09T16:18:31.256Z,99926.00
2018-07-09T16:20:36.033Z,99924.00
2018-07-09T16:22:45.935Z,99928.00
2018-07-09T16:24:56.020Z,99920.00
2018-07-09T16:27:06.191Z,99919.00
2018-07-09T16:29:14.513Z,99921.00
2018-07-09T16:31:22.912Z,99908.00
2018-07-09T16:33:30.916Z,99912.00
2018-07-09T16:35:41.081Z,99902.00
2018-07-09T16:37:51.454Z,99910.00
2018-07-09T16:39:57.118Z,99909.00
2018-07-09T16:42:06.768Z,99904.00
2018-07-09T16:44:18.550Z,99906.00
2018-07-09T16:46:28.599Z,99903.00
2018-07-09T16:48:38.180Z,99897.00
2018-07-09T16:50:50.803Z,99898.00
2018-07-09T16:53:00.347Z,99901.00
2018-07-09T16:55:10.470Z,99895.00
2018-07-09T16:57:22.238Z,99897.00
2018-07-09T16:59:31.863Z,99894.00
2018-07-09T17:01:41.903Z,99885.00
2018-07-09T17:03:52.173Z,99883.00
2018-07-09T17:06:02.428Z,99888.00
2018-07-09T17:08:13.592Z,99890.00
2018-07-09T17:10:23.083Z,99884.00
2018-07-09T17:12:30.517Z,99874.00
2018-07-09T17:14:42.078Z,99879.00
2018-07-09T17:16:51.593Z,99884.00
2018-07-09T17:19:00.895Z,99879.00
2018-07-09T17:21:10.565Z,99878.00
2018-07-09T17:23:18.139Z,99884.00
2018-07-09T17:25:27.077Z,99885.00
2018-07-09T17:27:35.913Z,99880.00
2018-07-09T17:29:45.450Z,99875.00
2018-07-09T17:31:54.349Z,99875.00
2018-07-09T17:34:04.395Z,99872.00
2018-07-09T17:36:13.868Z,99868.00
2018-07-09T17:38:22.749Z,99861.00
2018-07-09T17:40:31.256Z,99863.00
2018-07-09T17:42:38.094Z,99858.00
2018-07-09T17:44:47.102Z,99857.00
2018-07-09T17:46:55.698Z,99861.00
2018-07-09T17:49:04.699Z,99864.00
2018-07-09T17:51:13.429Z,99857.00
2018-07-09T17:53:22.655Z,99858.00
2018-07-09T17:55:31.414Z,99849.00
2018-07-09T17:57:40.759Z,99855.00
2018-07-09T17:59:50.572Z,99852.00
2018-07-09T18:01:59.951Z,99855.00
2018-07-09T18:04:08.578Z,99850.00
2018-07-09T18:06:16.502Z,99850.00
2018-07-09T18:08:23.474Z,99843.00
2018-07-09T18:10:31.806Z,99849.00
2018-07-09T18:12:36.230Z,99847.00
2018-07-09T18:14:40.939Z,99854.00
2018-07-09T18:16:45.562Z,99843.00
2018-07-09T18:18:52.219Z,99841.00
2018-07-09T18:20:57.965Z,99846.00
2018-07-09T18:23:05.035Z,99833.00
2018-07-09T18:25:14.070Z,99841.00
2018-07-09T18:27:18.819Z,99843.00
2018-07-09T18:29:23.332Z,99840.00
2018-07-09T18:31:27.975Z,99838.00
2018-07-09T18:33:32.957Z,99838.00
2018-07-09T18:35:37.713Z,99844.00
2018-07-09T18:37:42.121Z,99841.00
2018-07-09T18:39:47.275Z,99838.00
2018-07-09T18:41:53.099Z,99830.00
2018-07-09T18:43:57.659Z,99835.00
2018-07-09T18:46:02.579Z,99831.00
2018-07-09T18:48:07.179Z,99835.00
2018-07-09T18:50:12.270Z,99837.00
2018-07-09T18:52:16.754Z,99834.00
2018-07-09T18:54:21.823Z,99835.00
2018-07-09T18:56:26.766Z,99837.00
2018-07-09T18:58:32.961Z,99831.00
2018-07-09T19:00:38.108Z,99821.00
2018-07-09T19:02:42.872Z,99822.00
2018-07-09T19:04:47.426Z,99832.00
2018-07-09T19:06:56.238Z,99831.00
2018-07-09T19:09:01.199Z,99839.00
2018-07-09T19:11:05.875Z,99842.00
2018-07-09T19:13:10.532Z,99840.00
2018-07-09T19:15:16.240Z,99848.00
2018-07-09T19:18:06.418Z,99837.00
2018-07-09T19:20:26.624Z,99847.00
2018-07-09T19:22:30.470Z,99847.00
2018-07-09T19:24:33.437Z,99844.00
2018-07-09T19:26:37.423Z,99847.00
2018-07-09T19:28:40.233Z,99847.00
2018-07-09T19:30:43.043Z,99859.00
2018-07-09T19:32:45.921Z,99844.00
2018-07-09T19:34:48.907Z,99857.00
2018-07-09T19:36:52.769Z,99846.00
2018-07-09T19:38:55.835Z,99854.00
2018-07-09T19:40:59.085Z,99845.00
2018-07-09T19:43:03.583Z,99840.00
2018-07-09T19:45:06.476Z,99845.00
2018-07-09T19:47:09.290Z,99846.00
2018-07-09T19:49:12.183Z,99845.00
2018-07-09T19:51:16.000Z,99849.00
2018-07-09T19:53:18.884Z,99844.00
2018-07-09T19:55:21.876Z,99845.00
2018-07-09T19:57:25.999Z,99846.00
2018-07-09T19:59:29.050Z,99851.00
2018-07-09T20:01:31.767Z,99845.00
2018-07-09T20:03:34.504Z,99857.00
2018-07-09T20:05:37.549Z,99858.00
2018-07-09T20:07:40.431Z,99851.00
2018-07-09T20:09:48.290Z,99857.00
2018-07-09T20:11:53.418Z,99862.00
2018-07-09T20:14:03.070Z,99857.00
2018-07-09T20:16:11.778Z,99860.00
2018-07-09T20:18:14.516Z,99853.00
2018-07-09T20:20:17.942Z,99847.00
2018-07-09T20:22:20.681Z,99847.00
2018-07-09T20:24:23.438Z,99851.00
2018-07-09T20:26:26.657Z,99847.00
2018-07-09T20:28:29.387Z,99855.00
2018-07-09T20:30:32.091Z,99848.00
2018-07-09T20:32:34.867Z,99856.00
2018-07-09T20:34:37.577Z,99849.00
2018-07-09T20:36:40.545Z,99845.00
2018-07-09T20:38:43.466Z,99843.00
2018-07-09T20:40:47.777Z,99843.00
2018-07-09T20:42:50.603Z,99839.00
2018-07-09T20:44:54.328Z,99843.00
2018-07-09T20:46:57.203Z,99843.00
2018-07-09T20:48:59.962Z,99846.00
2018-07-09T20:51:02.679Z,99839.00
2018-07-09T20:53:05.549Z,99841.00
2018-07-09T20:55:08.334Z,99842.00
2018-07-09T20:57:11.091Z,99834.00
2018-07-09T20:59:13.818Z,99841.00
2018-07-09T21:01:16.568Z,99843.00
2018-07-09T21:03:19.295Z,99848.00
2018-07-09T21:05:22.066Z,99845.00
2018-07-09T21:07:24.786Z,99841.00
2018-07-09T21:09:28.178Z,99849.00
2018-07-09T21:11:30.885Z,99846.00
2018-07-09T21:13:33.626Z,99844.00
2018-07-09T21:15:36.436Z,99845.00
2018-07-09T21:17:39.091Z,99843.00
2018-07-09T21:19:41.825Z,99846.00
2018-07-09T21:21:44.530Z,99836.00
2018-07-09T21:23:47.319Z,99842.00
2018-07-09T21:25:50.153Z,99852.00
2018-07-09T21:27:52.861Z,99844.00
2018-07-09T21:29:55.959Z,99845.00
2018-07-09T21:31:58.665Z,99845.00
2018-07-09T21:34:01.456Z,99838.00
2018-07-09T21:36:04.463Z,99839.00
2018-07-09T21:38:07.279Z,99847.00
2018-07-09T21:40:10.149Z,99841.00
2018-07-09T21:42:13.112Z,99839.00
2018-07-09T21:44:15.875Z,99842.00
2018-07-09T21:46:18.593Z,99834.00
2018-07-09T21:48:29.781Z,99833.00
2018-07-09T21:50:24.269Z,99827.00
2018-07-09T21:52:27.559Z,99828.00
2018-07-09T21:54:30.304Z,99820.00
2018-07-09T21:56:33.101Z,99830.00
2018-07-09T21:58:35.734Z,99828.00
2018-07-09T22:00:38.499Z,99821.00
2018-07-09T22:02:41.309Z,99826.00
2018-07-09T22:04:44.051Z,99812.00
2018-07-09T22:06:47.716Z,99822.00
2018-07-09T22:08:50.428Z,99820.00
2018-07-09T22:10:53.159Z,99810.00
2018-07-09T22:12:55.899Z,99813.00
2018-07-09T22:14:58.629Z,99809.00
2018-07-09T22:17:01.670Z,99810.00
2018-07-09T22:19:04.381Z,99812.00
2018-07-09T22:21:07.807Z,99818.00
2018-07-09T22:23:10.506Z,99822.00
2018-07-09T22:25:13.893Z,99818.00
2018-07-09T22:27:17.530Z,99806.00
2018-07-09T22:29:20.250Z,99812.00
2018-07-09T22:31:24.778Z,99802.00
2018-07-09T22:33:29.598Z,99811.00
2018-07-09T22:35:34.111Z,99808.00
2018-07-09T22:37:38.647Z,99806.00
2018-07-09T22:39:43.090Z,99805.00
2018-07-09T22:41:49.685Z,99812.00
2018-07-09T22:44:05.189Z,99806.00
2018-07-09T22:46:09.626Z,99806.00
2018-07-09T22:48:14.138Z,99804.00
2018-07-09T22:50:18.729Z,99799.00
2018-07-09T22:52:23.168Z,99797.00
2018-07-09T22:54:27.658Z,99794.00
2018-07-09T22:56:32.136Z,99789.00
2018-07-09T22:58:37.159Z,99798.00
2018-07-09T23:00:41.628Z,99794.00
2018-07-09T23:02:53.060Z,99800.00
2018-07-09T23:04:57.582Z,99799.00
2018-07-09T23:07:02.075Z,99793.00
2018-07-09T23:11:27.650Z,99795.00
2018-07-09T23:14:51.755Z,99808.00
2018-07-09T23:17:14.350Z,99823.00
2018-07-09T23:19:36.012Z,99813.00
2018-07-09T23:21:58.669Z,99810.00
2018-07-09T23:24:01.419Z,99824.00
2018-07-09T23:26:04.155Z,99824.00
2018-07-09T23:28:06.870Z,99825.00
2018-07-09T23:30:09.606Z,99825.00
2018-07-09T23:32:12.356Z,99821.00
2018-07-09T23:34:15.583Z,99823.00
2018-07-09T23:36:18.311Z,99827.00
2018-07-09T23:38:21.069Z,99820.00
2018-07-09T23:40:23.770Z,99822.00
2018-07-09T23:42:26.535Z,99807.00
2018-07-09T23:44:29.296Z,99822.00
2018-07-09T23:46:32.307Z,99817.00
2018-07-09T23:48:35.062Z,99803.00
2018-07-09T23:50:37.767Z,99811.00
2018-07-09T23:52:40.506Z,99804.00
2018-07-09T23:54:43.208Z,99797.00
2018-07-09T23:59:32.938Z,99802.00
